createdAt,value
2019-05-14T00:01:34.471Z,96.00
2019-05-14T00:04:02.082Z,95.90
2019-05-14T00:06:28.519Z,95.70
2019-05-14T00:08:54.929Z,95.70
2019-05-14T00:11:21.890Z,95.90
2019-05-14T00:13:48.286Z,95.80
2019-05-14T00:16:14.477Z,96.10
2019-05-14T00:18:42.010Z,95.90
2019-05-14T00:21:08.318Z,95.90
2019-05-14T00:23:34.823Z,96.10
2019-05-14T00:26:01.794Z,96.30
2019-05-14T00:28:31.553Z,95.90
2019-05-14T00:30:57.503Z,96.10
2019-05-14T00:33:23.678Z,96.40
2019-05-14T00:35:51.486Z,96.00
2019-05-14T00:38:18.019Z,95.80
2019-05-14T00:40:44.194Z,96.00
2019-05-14T00:43:11.398Z,96.30
2019-05-14T00:45:37.778Z,96.10
2019-05-14T00:48:03.942Z,96.20
2019-05-14T00:50:31.701Z,96.20
2019-05-14T00:52:58.418Z,96.30
2019-05-14T00:55:24.708Z,96.50
2019-05-14T00:57:52.178Z,96.50
2019-05-14T01:00:18.718Z,96.40
2019-05-14T01:02:44.922Z,96.80
2019-05-14T01:05:12.486Z,96.80
2019-05-14T01:07:38.924Z,96.70
2019-05-14T01:10:05.904Z,96.80
2019-05-14T01:12:32.186Z,97.10
2019-05-14T01:15:07.838Z,96.90
2019-05-14T01:17:26.687Z,97.10
2019-05-14T01:19:52.975Z,97.30
2019-05-14T01:22:21.260Z,97.40
2019-05-14T01:24:47.628Z,97.30
2019-05-14T01:27:13.801Z,97.10
2019-05-14T01:29:42.539Z,97.40
2019-05-14T01:32:11.464Z,97.10
2019-05-14T01:34:37.207Z,97.60
2019-05-14T01:37:03.411Z,97.70
2019-05-14T01:39:31.917Z,97.90
2019-05-14T01:41:57.550Z,98.20
2019-05-14T01:44:23.817Z,98.40
2019-05-14T01:46:51.242Z,98.40
2019-05-14T01:49:17.562Z,98.50
2019-05-14T01:51:43.910Z,98.60
2019-05-14T01:54:11.964Z,98.80
2019-05-14T01:56:38.525Z,99.00
2019-05-14T01:59:04.898Z,99.10
2019-05-14T02:01:31.483Z,99.30
2019-05-14T02:03:57.865Z,98.70
2019-05-14T02:06:24.207Z,99.40
2019-05-14T02:08:51.448Z,99.30
2019-05-14T02:11:17.859Z,99.50
2019-05-14T02:13:44.058Z,99.90
2019-05-14T02:16:13.041Z,99.60
2019-05-14T02:18:38.226Z,99.70
2019-05-14T02:21:04.418Z,99.90
2019-05-14T02:23:32.097Z,99.90
2019-05-14T02:25:58.482Z,99.80
2019-05-14T02:28:24.684Z,99.90
2019-05-14T02:30:58.116Z,99.90
2019-05-14T02:33:19.925Z,99.90
2019-05-14T02:35:49.132Z,99.90
2019-05-14T02:38:14.441Z,99.90
2019-05-14T02:40:40.689Z,99.90
2019-05-14T02:43:09.604Z,99.90
2019-05-14T02:45:45.026Z,99.90
2019-05-14T02:48:03.685Z,99.90
2019-05-14T02:50:29.919Z,99.90
2019-05-14T02:52:56.066Z,99.90
2019-05-14T02:55:22.239Z,99.90
2019-05-14T02:57:50.070Z,99.90
2019-05-14T03:00:19.326Z,99.90
2019-05-14T03:02:44.651Z,99.90
2019-05-14T03:05:11.260Z,99.90
2019-05-14T03:07:39.239Z,99.90
2019-05-14T03:10:05.412Z,99.90
2019-05-14T03:12:31.620Z,99.90
2019-05-14T03:14:58.870Z,99.90
2019-05-14T03:17:25.250Z,99.90
2019-05-14T03:19:51.456Z,99.90
2019-05-14T03:22:26.536Z,99.90
2019-05-14T03:24:45.599Z,99.90
2019-05-14T03:27:11.819Z,99.90
2019-05-14T03:29:39.702Z,99.90
2019-05-14T03:32:11.838Z,99.90
2019-05-14T03:34:34.438Z,99.90
2019-05-14T03:37:03.040Z,99.90
2019-05-14T03:39:29.611Z,99.90
2019-05-14T03:41:58.731Z,99.90
2019-05-14T03:44:24.055Z,99.90
2019-05-14T03:46:55.283Z,99.90
2019-05-14T03:49:19.808Z,99.90
2019-05-14T03:51:46.243Z,99.90
2019-05-14T03:54:13.058Z,99.90
2019-05-14T03:56:40.673Z,99.90
2019-05-14T03:59:09.603Z,99.90
2019-05-14T04:01:34.933Z,99.90
2019-05-14T04:04:01.128Z,99.90
2019-05-14T04:06:30.151Z,99.90
2019-05-14T04:08:55.704Z,99.90
2019-05-14T04:11:21.900Z,99.90
2019-05-14T04:13:49.661Z,99.90
2019-05-14T04:16:16.056Z,99.90
2019-05-14T04:18:43.067Z,99.90
2019-05-14T04:21:10.071Z,99.90
2019-05-14T04:23:39.613Z,99.90
2019-05-14T04:26:05.314Z,99.90
2019-05-14T04:28:32.487Z,99.90
2019-05-14T04:30:59.737Z,99.90
2019-05-14T04:33:29.947Z,99.90
2019-05-14T04:35:54.788Z,99.90
2019-05-14T04:38:21.219Z,99.90
2019-05-14T04:40:49.417Z,99.90
2019-05-14T04:43:19.035Z,99.90
2019-05-14T04:45:43.667Z,99.90
2019-05-14T04:48:27.943Z,99.90
2019-05-14T04:50:40.446Z,99.90
2019-05-14T04:53:08.894Z,99.90
2019-05-14T04:55:34.236Z,99.90
2019-05-14T04:58:00.507Z,99.90
2019-05-14T05:00:30.204Z,99.90
2019-05-14T05:02:55.839Z,99.90
2019-05-14T05:05:22.038Z,99.90
2019-05-14T05:07:49.216Z,99.90
2019-05-14T05:10:15.713Z,99.90
2019-05-14T05:12:42.683Z,99.90
2019-05-14T05:15:09.603Z,99.90
2019-05-14T05:17:46.615Z,99.90
2019-05-14T05:20:04.933Z,99.90
2019-05-14T05:22:31.106Z,99.90
2019-05-14T05:24:58.949Z,99.90
2019-05-14T05:27:25.394Z,99.90
2019-05-14T05:29:51.562Z,99.90
2019-05-14T05:32:19.441Z,99.90
2019-05-14T05:34:48.288Z,99.90
2019-05-14T05:37:14.210Z,99.90
2019-05-14T05:39:40.514Z,99.90
2019-05-14T05:42:08.984Z,99.90
2019-05-14T05:44:34.758Z,99.90
2019-05-14T05:47:01.383Z,99.90
2019-05-14T05:49:29.151Z,99.90
2019-05-14T05:51:55.545Z,99.90
2019-05-14T05:54:21.748Z,99.90
2019-05-14T05:56:48.275Z,99.90
2019-05-14T05:59:14.595Z,99.90
2019-05-14T06:01:46.014Z,99.80
2019-05-14T06:04:08.865Z,99.80
2019-05-14T06:06:35.188Z,99.80
2019-05-14T06:09:01.600Z,99.50
2019-05-14T06:11:29.015Z,99.60
2019-05-14T06:13:55.475Z,99.30
2019-05-14T06:16:21.674Z,99.90
2019-05-14T06:18:48.579Z,99.60
2019-05-14T06:21:15.136Z,99.10
2019-05-14T06:23:41.345Z,99.70
2019-05-14T06:26:11.397Z,99.30
2019-05-14T06:28:35.511Z,98.90
2019-05-14T06:31:01.728Z,98.30
2019-05-14T06:33:28.607Z,98.00
2019-05-14T06:35:55.762Z,98.30
2019-05-14T06:38:21.967Z,98.10
2019-05-14T06:40:48.922Z,98.00
2019-05-14T06:43:15.406Z,98.80
2019-05-14T06:45:41.673Z,98.40
2019-05-14T06:48:08.665Z,98.20
2019-05-14T06:50:35.166Z,97.90
2019-05-14T06:53:01.366Z,97.70
2019-05-14T06:55:28.418Z,97.40
2019-05-14T06:57:54.759Z,97.90
2019-05-14T07:00:21.219Z,97.40
2019-05-14T07:02:49.060Z,96.30
2019-05-14T07:05:15.432Z,96.20
2019-05-14T07:07:41.930Z,96.30
2019-05-14T07:10:08.933Z,96.20
2019-05-14T07:12:38.635Z,96.10
2019-05-14T07:15:04.397Z,96.80
2019-05-14T07:17:30.559Z,95.90
2019-05-14T07:19:58.182Z,96.10
2019-05-14T07:22:24.830Z,96.40
2019-05-14T07:24:51.005Z,95.80
2019-05-14T07:27:19.258Z,95.00
2019-05-14T07:29:45.204Z,95.40
2019-05-14T07:32:11.379Z,94.60
2019-05-14T07:34:38.929Z,94.10
2019-05-14T07:37:06.050Z,94.60
2019-05-14T07:39:32.252Z,94.80
2019-05-14T07:41:59.055Z,95.30
2019-05-14T07:44:25.684Z,94.00
2019-05-14T07:46:51.794Z,94.40
2019-05-14T07:49:18.437Z,94.60
2019-05-14T07:51:44.968Z,94.20
2019-05-14T07:54:11.434Z,94.70
2019-05-14T07:56:38.516Z,93.80
2019-05-14T07:59:05.021Z,94.10
2019-05-14T08:01:31.206Z,94.50
2019-05-14T08:04:00.202Z,93.90
2019-05-14T08:06:25.391Z,94.70
2019-05-14T08:08:51.567Z,93.90
2019-05-14T08:11:19.140Z,93.90
2019-05-14T08:13:45.645Z,93.60
2019-05-14T08:16:11.823Z,94.40
2019-05-14T08:18:39.533Z,93.80
2019-05-14T08:21:08.293Z,93.20
2019-05-14T08:23:33.990Z,93.70
2019-05-14T08:26:03.792Z,92.90
2019-05-14T08:28:29.081Z,92.10
2019-05-14T08:30:55.505Z,92.80
2019-05-14T08:33:21.665Z,93.10
2019-05-14T08:35:48.822Z,92.60
2019-05-14T08:38:15.627Z,92.40
2019-05-14T08:40:42.314Z,92.60
2019-05-14T08:43:08.723Z,92.90
2019-05-14T08:45:35.090Z,92.80
2019-05-14T08:48:01.363Z,93.00
2019-05-14T08:50:28.863Z,91.80
2019-05-14T08:52:55.043Z,91.90
2019-05-14T08:55:21.422Z,91.20
2019-05-14T08:57:48.999Z,91.30
2019-05-14T09:00:15.592Z,91.00
2019-05-14T09:02:41.977Z,92.00
2019-05-14T09:05:10.231Z,92.10
2019-05-14T09:07:38.357Z,91.20
2019-05-14T09:10:08.699Z,91.30
2019-05-14T09:12:34.833Z,90.90
2019-05-14T09:15:01.007Z,91.30
2019-05-14T09:17:28.866Z,91.10
2019-05-14T09:20:05.694Z,90.30
2019-05-14T09:22:23.558Z,89.30
2019-05-14T09:24:49.742Z,89.10
2019-05-14T09:27:15.962Z,91.10
2019-05-14T09:29:42.186Z,89.20
2019-05-14T09:32:09.635Z,90.10
2019-05-14T09:34:36.281Z,90.20
2019-05-14T09:37:02.543Z,90.20
2019-05-14T09:39:29.707Z,88.40
2019-05-14T09:41:58.022Z,88.00
2019-05-14T09:44:24.079Z,88.90
2019-05-14T09:46:50.256Z,90.10
2019-05-14T09:49:18.624Z,88.70
2019-05-14T09:51:44.543Z,88.10
2019-05-14T09:54:10.717Z,88.20
2019-05-14T09:56:39.317Z,90.50
2019-05-14T09:59:04.974Z,88.90
2019-05-14T10:01:31.311Z,89.90
2019-05-14T10:03:59.332Z,90.20
2019-05-14T10:06:28.285Z,90.50
2019-05-14T10:08:53.834Z,90.10
2019-05-14T10:11:20.030Z,89.50
2019-05-14T10:13:48.364Z,90.00
2019-05-14T10:16:14.771Z,88.90
2019-05-14T10:18:40.966Z,90.20
2019-05-14T10:21:08.610Z,89.50
2019-05-14T10:23:35.014Z,86.40
2019-05-14T10:26:01.722Z,88.10
2019-05-14T10:28:28.833Z,86.50
2019-05-14T10:30:55.396Z,87.50
2019-05-14T10:33:21.686Z,84.80
2019-05-14T10:35:48.500Z,84.80
2019-05-14T10:38:14.834Z,84.10
2019-05-14T10:40:41.510Z,84.30
2019-05-14T10:43:09.083Z,86.60
2019-05-14T10:45:35.599Z,83.70
2019-05-14T10:48:01.750Z,84.90
2019-05-14T10:50:28.944Z,84.80
2019-05-14T10:52:55.690Z,85.70
2019-05-14T10:55:22.026Z,87.10
2019-05-14T10:57:53.962Z,86.90
2019-05-14T11:00:18.505Z,85.90
2019-05-14T11:02:44.232Z,86.30
2019-05-14T11:05:11.920Z,87.70
2019-05-14T11:07:43.218Z,85.60
2019-05-14T11:10:09.589Z,85.00
2019-05-14T11:12:35.874Z,86.70
2019-05-14T11:15:04.647Z,92.70
2019-05-14T11:17:31.130Z,92.10
2019-05-14T11:19:58.666Z,92.60
2019-05-14T11:22:24.992Z,92.60
2019-05-14T11:24:51.174Z,92.70
2019-05-14T11:27:18.618Z,92.30
2019-05-14T11:29:45.049Z,92.70
2019-05-14T11:32:11.259Z,91.30
2019-05-14T11:34:38.965Z,90.80
2019-05-14T11:37:05.409Z,90.80
2019-05-14T11:39:31.602Z,92.20
2019-05-14T11:41:59.087Z,92.30
2019-05-14T11:44:25.499Z,92.20
2019-05-14T11:46:57.707Z,92.00
2019-05-14T11:49:19.706Z,91.70
2019-05-14T11:52:00.750Z,93.50
2019-05-14T11:54:14.166Z,94.40
2019-05-14T11:56:41.772Z,94.60
2019-05-14T11:59:08.671Z,95.50
2019-05-14T12:01:35.194Z,96.20
2019-05-14T12:04:01.541Z,95.00
2019-05-14T12:06:30.246Z,95.00
2019-05-14T12:08:58.133Z,95.10
2019-05-14T12:11:23.914Z,94.50
2019-05-14T12:13:50.115Z,94.50
2019-05-14T12:16:16.287Z,94.70
2019-05-14T12:18:42.455Z,94.30
2019-05-14T12:21:09.096Z,95.60
2019-05-14T12:23:35.862Z,95.60
2019-05-14T12:26:02.039Z,95.40
2019-05-14T12:28:29.134Z,94.80
2019-05-14T12:30:58.129Z,94.10
2019-05-14T12:33:23.732Z,94.00
2019-05-14T12:35:49.958Z,94.10
2019-05-14T12:38:18.556Z,94.50
2019-05-14T12:40:44.273Z,94.40
2019-05-14T12:43:11.004Z,94.90
2019-05-14T12:45:39.314Z,94.90
2019-05-14T12:48:05.185Z,94.80
2019-05-14T12:50:31.465Z,94.80
2019-05-14T12:52:58.818Z,94.90
2019-05-14T12:55:25.311Z,95.00
2019-05-14T12:57:51.537Z,94.70
2019-05-14T13:00:17.850Z,95.10
2019-05-14T13:02:44.012Z,94.70
2019-05-14T13:05:10.179Z,94.50
2019-05-14T13:07:41.436Z,93.80
2019-05-14T13:10:05.155Z,94.10
2019-05-14T13:12:31.427Z,95.40
2019-05-14T13:14:57.968Z,94.80
2019-05-14T13:17:24.170Z,94.80
2019-05-14T13:19:50.355Z,94.60
2019-05-14T13:22:20.715Z,95.70
2019-05-14T13:24:44.733Z,95.90
2019-05-14T13:27:10.898Z,95.80
2019-05-14T13:29:37.102Z,95.50
2019-05-14T13:32:03.353Z,95.70
2019-05-14T13:34:29.598Z,95.30
2019-05-14T13:36:55.860Z,95.80
2019-05-14T13:39:22.039Z,93.70
2019-05-14T13:41:48.674Z,94.60
2019-05-14T13:44:21.311Z,95.20
2019-05-14T13:46:43.543Z,94.00
2019-05-14T13:49:09.727Z,93.90
2019-05-14T13:51:38.578Z,94.20
2019-05-14T13:54:04.005Z,94.30
2019-05-14T13:56:30.170Z,94.10
2019-05-14T13:58:58.910Z,94.80
2019-05-14T14:01:24.346Z,95.20
2019-05-14T14:04:04.216Z,95.50
2019-05-14T14:06:20.657Z,95.40
2019-05-14T14:08:48.898Z,93.90
2019-05-14T14:11:14.650Z,94.00
2019-05-14T14:13:40.992Z,94.60
2019-05-14T14:16:13.799Z,94.80
2019-05-14T14:18:35.310Z,96.00
2019-05-14T14:21:01.616Z,95.00
2019-05-14T14:23:31.083Z,95.20
2019-05-14T14:25:57.146Z,95.70
2019-05-14T14:28:23.939Z,95.20
2019-05-14T14:30:50.230Z,95.00
2019-05-14T14:33:18.565Z,95.30
2019-05-14T14:35:44.415Z,94.70
2019-05-14T14:38:10.592Z,94.60
2019-05-14T14:40:39.371Z,93.80
2019-05-14T14:43:04.878Z,94.40
2019-05-14T14:45:31.601Z,94.60
2019-05-14T14:48:01.077Z,94.50
2019-05-14T14:50:28.698Z,94.00
2019-05-14T14:52:53.770Z,94.40
2019-05-14T14:55:19.962Z,94.60
2019-05-14T14:57:52.222Z,95.10
2019-05-14T15:00:14.294Z,93.50
2019-05-14T15:02:41.358Z,94.30
2019-05-14T15:05:12.887Z,94.00
2019-05-14T15:07:35.859Z,94.80
2019-05-14T15:10:04.131Z,94.70
2019-05-14T15:12:30.327Z,93.80
2019-05-14T15:14:59.419Z,94.70
2019-05-14T15:17:24.485Z,95.20
2019-05-14T15:19:50.696Z,94.20
2019-05-14T15:22:20.492Z,93.90
2019-05-14T15:24:44.963Z,95.20
2019-05-14T15:27:15.157Z,94.70
2019-05-14T15:29:42.844Z,94.80
2019-05-14T15:32:09.373Z,94.10
2019-05-14T15:34:35.472Z,94.00
2019-05-14T15:37:01.641Z,93.40
2019-05-14T15:39:30.174Z,94.40
2019-05-14T15:42:04.072Z,94.30
2019-05-14T15:44:23.975Z,94.50
2019-05-14T15:46:51.674Z,93.40
2019-05-14T15:49:19.188Z,94.40
2019-05-14T15:51:45.574Z,93.50
2019-05-14T15:54:34.990Z,93.40
2019-05-14T15:56:39.735Z,93.80
2019-05-14T15:59:08.771Z,94.10
2019-05-14T16:01:35.209Z,93.70
2019-05-14T16:04:01.408Z,93.00
2019-05-14T16:06:27.582Z,94.40
2019-05-14T16:08:53.759Z,94.30
2019-05-14T16:11:19.954Z,94.20
2019-05-14T16:13:46.315Z,93.90
2019-05-14T16:16:12.527Z,93.30
2019-05-14T16:18:38.738Z,93.70
2019-05-14T16:21:04.885Z,94.40
2019-05-14T16:23:31.059Z,94.20
2019-05-14T16:25:59.033Z,94.20
2019-05-14T16:28:25.334Z,93.50
2019-05-14T16:30:51.507Z,94.20
2019-05-14T16:33:18.691Z,94.30
2019-05-14T16:35:45.189Z,94.70
2019-05-14T16:38:11.367Z,95.10
2019-05-14T16:40:39.563Z,94.30
2019-05-14T16:43:05.773Z,94.50
2019-05-14T16:45:32.145Z,95.10
2019-05-14T16:47:59.353Z,95.50
2019-05-14T16:50:25.725Z,95.40
2019-05-14T16:52:52.004Z,95.50
2019-05-14T16:55:24.585Z,95.30
2019-05-14T16:57:46.195Z,95.40
2019-05-14T17:00:13.366Z,95.10
2019-05-14T17:02:41.815Z,95.80
2019-05-14T17:05:09.283Z,96.40
2019-05-14T17:07:38.301Z,96.00
2019-05-14T17:10:04.238Z,95.80
2019-05-14T17:12:46.927Z,96.60
2019-05-14T17:14:58.749Z,96.20
2019-05-14T17:17:24.982Z,96.60
2019-05-14T17:19:51.154Z,96.80
2019-05-14T17:22:27.600Z,96.50
2019-05-14T17:24:45.331Z,96.70
2019-05-14T17:27:11.498Z,96.80
2019-05-14T17:29:38.914Z,96.50
2019-05-14T17:32:05.490Z,96.40
2019-05-14T17:34:31.768Z,96.90
2019-05-14T17:36:59.382Z,97.20
2019-05-14T17:39:25.762Z,97.20
2019-05-14T17:41:51.943Z,98.10
2019-05-14T17:44:18.315Z,98.10
2019-05-14T17:46:44.582Z,98.10
2019-05-14T17:49:12.250Z,98.60
2019-05-14T17:51:39.117Z,98.40
2019-05-14T17:54:06.025Z,97.60
2019-05-14T17:56:32.206Z,98.30
2019-05-14T17:58:58.382Z,98.30
2019-05-14T18:01:24.612Z,98.10
2019-05-14T18:03:50.891Z,97.80
2019-05-14T18:06:18.923Z,98.60
2019-05-14T18:08:45.083Z,98.50
2019-05-14T18:11:11.255Z,98.50
2019-05-14T18:13:39.168Z,98.70
2019-05-14T18:16:05.522Z,99.30
2019-05-14T18:18:31.803Z,98.90
2019-05-14T18:20:58.392Z,99.60
2019-05-14T18:23:24.677Z,99.70
2019-05-14T18:26:03.334Z,99.10
2019-05-14T18:28:18.835Z,99.70
2019-05-14T18:30:45.183Z,99.90
2019-05-14T18:33:11.358Z,99.90
2019-05-14T18:35:45.431Z,99.90
2019-05-14T18:38:08.119Z,99.90
2019-05-14T18:40:33.787Z,99.90
2019-05-14T18:42:59.971Z,99.90
2019-05-14T18:45:26.339Z,99.90
2019-05-14T18:47:52.514Z,99.90
2019-05-14T18:50:19.722Z,99.90
2019-05-14T18:52:48.378Z,99.90
2019-05-14T18:55:14.336Z,99.90
2019-05-14T18:57:40.603Z,99.90
2019-05-14T19:00:07.014Z,99.90
2019-05-14T19:02:33.193Z,99.90
2019-05-14T19:04:59.370Z,99.90
2019-05-14T19:07:25.567Z,99.90
2019-05-14T19:09:51.754Z,99.90
2019-05-14T19:12:18.993Z,99.90
2019-05-14T19:14:45.534Z,99.90
2019-05-14T19:17:11.712Z,99.90
2019-05-14T19:19:38.635Z,99.90
2019-05-14T19:22:05.178Z,99.90
2019-05-14T19:24:31.357Z,99.90
2019-05-14T19:26:59.527Z,99.90
2019-05-14T19:29:28.022Z,99.90
2019-05-14T19:31:53.682Z,99.90
2019-05-14T19:34:19.896Z,99.90
2019-05-14T19:36:46.067Z,99.90
2019-05-14T19:39:12.238Z,99.90
2019-05-14T19:41:39.042Z,99.90
2019-05-14T19:44:05.315Z,99.90
2019-05-14T19:46:31.490Z,99.90
2019-05-14T19:48:59.103Z,99.90
2019-05-14T19:51:27.885Z,99.90
2019-05-14T19:53:54.179Z,99.90
2019-05-14T19:56:20.349Z,99.90
2019-05-14T19:58:46.677Z,99.90
2019-05-14T20:01:12.851Z,99.90
2019-05-14T20:03:39.025Z,99.90
2019-05-14T20:06:05.222Z,99.90
2019-05-14T20:08:31.395Z,99.90
2019-05-14T20:10:59.299Z,99.90
2019-05-14T20:13:28.439Z,99.90
2019-05-14T20:15:53.538Z,99.90
2019-05-14T20:18:19.882Z,99.90
2019-05-14T20:20:46.082Z,99.90
2019-05-14T20:23:12.259Z,99.90
2019-05-14T20:25:38.896Z,99.90
2019-05-14T20:28:05.410Z,99.90
2019-05-14T20:30:31.591Z,99.90
2019-05-14T20:32:59.252Z,99.90
2019-05-14T20:35:31.787Z,99.90
2019-05-14T20:37:53.697Z,99.90
2019-05-14T20:40:19.824Z,99.90
2019-05-14T20:42:46.023Z,99.90
2019-05-14T20:45:12.214Z,99.90
2019-05-14T20:47:39.137Z,99.90
2019-05-14T20:50:08.910Z,99.90
2019-05-14T20:52:36.118Z,99.90
2019-05-14T20:55:04.598Z,99.90
2019-05-14T20:57:33.483Z,99.90
2019-05-14T20:59:58.951Z,99.90
2019-05-14T21:02:25.397Z,99.90
2019-05-14T21:04:54.776Z,99.90
2019-05-14T21:07:19.832Z,99.90
2019-05-14T21:09:46.128Z,99.90
2019-05-14T21:12:12.561Z,99.90
2019-05-14T21:14:41.432Z,99.90
2019-05-14T21:17:08.537Z,99.90
2019-05-14T21:19:35.239Z,99.90
2019-05-14T21:22:01.569Z,99.90
2019-05-14T21:24:29.411Z,99.90
2019-05-14T21:26:58.243Z,99.90
2019-05-14T21:29:24.451Z,99.90
2019-05-14T21:31:50.886Z,99.90
2019-05-14T21:34:17.221Z,99.90
2019-05-14T21:36:44.879Z,99.90
2019-05-14T21:39:11.317Z,99.90
2019-05-14T21:41:38.623Z,99.90
2019-05-14T21:44:05.088Z,99.90
2019-05-14T21:46:31.719Z,99.90
2019-05-14T21:48:58.678Z,99.90
2019-05-14T21:51:25.213Z,99.90
2019-05-14T21:53:51.781Z,99.90
2019-05-14T21:56:21.692Z,99.90
2019-05-14T21:58:48.085Z,99.90
2019-05-14T22:01:14.630Z,99.90
2019-05-14T22:03:41.165Z,99.90
2019-05-14T22:06:08.889Z,99.90
2019-05-14T22:08:35.192Z,99.90
2019-05-14T22:11:01.694Z,99.90
2019-05-14T22:13:28.439Z,99.90
2019-05-14T22:15:54.865Z,99.90
2019-05-14T22:18:21.199Z,99.90
2019-05-14T22:20:48.287Z,99.90
2019-05-14T22:23:14.676Z,99.90
2019-05-14T22:25:41.008Z,99.90
2019-05-14T22:28:15.106Z,99.90
2019-05-14T22:30:35.611Z,99.90
2019-05-14T22:33:02.147Z,99.90
2019-05-14T22:35:31.303Z,99.90
2019-05-14T22:37:56.650Z,99.90
2019-05-14T22:40:23.084Z,99.90
2019-05-14T22:42:49.413Z,99.90
2019-05-14T22:45:15.846Z,99.90
2019-05-14T22:47:42.177Z,99.90
2019-05-14T22:50:08.952Z,99.90
2019-05-14T22:52:38.266Z,99.90
2019-05-14T22:55:05.471Z,99.90
2019-05-14T22:57:31.799Z,99.90
2019-05-14T22:59:58.193Z,99.90
2019-05-14T23:02:24.767Z,99.90
2019-05-14T23:04:51.097Z,99.90
2019-05-14T23:07:18.962Z,99.90
2019-05-14T23:09:45.498Z,99.90
2019-05-14T23:12:12.350Z,99.90
2019-05-14T23:14:39.083Z,99.90
2019-05-14T23:17:07.939Z,99.90
2019-05-14T23:19:33.789Z,99.90
2019-05-14T23:22:00.120Z,99.90
2019-05-14T23:24:28.434Z,99.90
2019-05-14T23:26:54.631Z,99.90
2019-05-14T23:29:20.966Z,99.90
2019-05-14T23:31:48.869Z,99.90
2019-05-14T23:34:15.356Z,99.90
2019-05-14T23:36:41.686Z,99.90
2019-05-14T23:39:08.807Z,99.90
2019-05-14T23:41:38.165Z,99.90
2019-05-14T23:44:03.747Z,99.90
2019-05-14T23:46:30.180Z,99.90
2019-05-14T23:48:56.511Z,99.90
2019-05-14T23:51:22.842Z,99.90
2019-05-14T23:53:49.378Z,99.90
2019-05-14T23:56:19.121Z,99.90
2019-05-14T23:58:54.735Z,99.90
